sensor_id;sensor_type;location;lat;lon;timestamp;pressure;altitude;pressure_sealevel;temperature;humidity
47738;BME280;33502;47.182;27.506;2023-02-18T00:01:23;100004.66;;;5.36;100.00
47738;BME280;33502;47.182;27.506;2023-02-18T00:03:49;100021.31;;;5.35;100.00
47738;BME280;33502;47.182;27.506;2023-02-18T00:06:25;100025.78;;;5.32;100.00
47738;BME280;33502;47.182;27.506;2023-02-18T00:08:52;100012.53;;;5.36;100.00
47738;BME280;33502;47.182;27.506;2023-02-18T00:11:20;100020.16;;;5.45;100.00
47738;BME280;33502;47.182;27.506;2023-02-18T00:13:56;100027.78;;;5.56;100.00
47738;BME280;33502;47.182;27.506;2023-02-18T00:16:24;100030.75;;;5.75;100.00
47738;BME280;33502;47.182;27.506;2023-02-18T00:18:54;100029.16;;;6.02;100.00
47738;BME280;33502;47.182;27.506;2023-02-18T00:21:20;100024.38;;;6.15;100.00
47738;BME280;33502;47.182;27.506;2023-02-18T00:23:46;100029.59;;;6.17;100.00
47738;BME280;33502;47.182;27.506;2023-02-18T00:26:14;100031.63;;;6.07;100.00
47738;BME280;33502;47.182;27.506;2023-02-18T00:28:41;100020.56;;;5.94;100.00
47738;BME280;33502;47.182;27.506;2023-02-18T00:31:18;100028.00;;;5.80;100.00
47738;BME280;33502;47.182;27.506;2023-02-18T00:33:44;100018.72;;;5.66;100.00
47738;BME280;33502;47.182;27.506;2023-02-18T00:36:12;100016.47;;;5.53;100.00
47738;BME280;33502;47.182;27.506;2023-02-18T00:38:42;100004.56;;;5.39;100.00
47738;BME280;33502;47.182;27.506;2023-02-18T00:41:08;100003.66;;;5.40;100.00
47738;BME280;33502;47.182;27.506;2023-02-18T00:43:33;100004.47;;;5.42;100.00
47738;BME280;33502;47.182;27.506;2023-02-18T00:45:59;100000.97;;;5.43;100.00
47738;BME280;33502;47.182;27.506;2023-02-18T00:48:26;100000.16;;;5.41;100.00
47738;BME280;33502;47.182;27.506;2023-02-18T00:50:52;99988.78;;;5.41;100.00
47738;BME280;33502;47.182;27.506;2023-02-18T00:53:21;99989.69;;;5.40;100.00
47738;BME280;33502;47.182;27.506;2023-02-18T00:55:47;99976.59;;;5.38;100.00
47738;BME280;33502;47.182;27.506;2023-02-18T00:58:14;99973.06;;;5.39;100.00
47738;BME280;33502;47.182;27.506;2023-02-18T01:00:40;99965.19;;;5.39;100.00
47738;BME280;33502;47.182;27.506;2023-02-18T01:03:08;99968.75;;;5.37;100.00
47738;BME280;33502;47.182;27.506;2023-02-18T01:05:35;99968.91;;;5.30;100.00
47738;BME280;33502;47.182;27.506;2023-02-18T01:08:01;99960.25;;;5.27;100.00
47738;BME280;33502;47.182;27.506;2023-02-18T01:10:28;99962.00;;;5.28;100.00
47738;BME280;33502;47.182;27.506;2023-02-18T01:12:54;99957.59;;;5.28;100.00
47738;BME280;33502;47.182;27.506;2023-02-18T01:15:21;99951.47;;;5.29;100.00
47738;BME280;33502;47.182;27.506;2023-02-18T01:17:47;99938.41;;;5.26;100.00
47738;BME280;33502;47.182;27.506;2023-02-18T01:20:14;99934.91;;;5.26;100.00
47738;BME280;33502;47.182;27.506;2023-02-18T01:22:40;99926.31;;;5.21;100.00
47738;BME280;33502;47.182;27.506;2023-02-18T01:25:07;99927.25;;;5.18;100.00
47738;BME280;33502;47.182;27.506;2023-02-18T01:27:33;99918.59;;;5.15;100.00
47738;BME280;33502;47.182;27.506;2023-02-18T01:30:00;99903.75;;;5.14;100.00
47738;BME280;33502;47.182;27.506;2023-02-18T01:32:26;99904.69;;;5.11;100.00
47738;BME280;33502;47.182;27.506;2023-02-18T01:34:52;99909.13;;;5.09;100.00
47738;BME280;33502;47.182;27.506;2023-02-18T01:37:18;99900.47;;;5.05;100.00
47738;BME280;33502;47.182;27.506;2023-02-18T01:39:44;99890.78;;;5.07;100.00
47738;BME280;33502;47.182;27.506;2023-02-18T01:42:29;99882.91;;;5.07;100.00
47738;BME280;33502;47.182;27.506;2023-02-18T01:48:12;99869.25;;;5.27;100.00
47738;BME280;33502;47.182;27.506;2023-02-18T01:50:44;99865.59;;;5.33;100.00
47738;BME280;33502;47.182;27.506;2023-02-18T01:53:13;99859.56;;;5.29;100.00
47738;BME280;33502;47.182;27.506;2023-02-18T01:55:41;99867.56;;;5.25;100.00
47738;BME280;33502;47.182;27.506;2023-02-18T01:58:07;99857.16;;;5.22;100.00
47738;BME280;33502;47.182;27.506;2023-02-18T02:00:33;99866.88;;;5.18;100.00
47738;BME280;33502;47.182;27.506;2023-02-18T02:03:01;99862.63;;;5.14;100.00
47738;BME280;33502;47.182;27.506;2023-02-18T02:05:31;99872.38;;;5.09;100.00
47738;BME280;33502;47.182;27.506;2023-02-18T02:07:58;99873.38;;;5.05;100.00
47738;BME280;33502;47.182;27.506;2023-02-18T02:10:34;99869.13;;;5.01;100.00
47738;BME280;33502;47.182;27.506;2023-02-18T02:13:16;99869.19;;;4.98;100.00
47738;BME280;33502;47.182;27.506;2023-02-18T02:15:54;99863.13;;;4.96;100.00
47738;BME280;33502;47.182;27.506;2023-02-18T02:42:53;99835.34;;;4.87;100.00
47738;BME280;33502;47.182;27.506;2023-02-18T02:53:35;99824.38;;;5.05;100.00
47738;BME280;33502;47.182;27.506;2023-02-18T02:56:01;99818.16;;;5.08;100.00
47738;BME280;33502;47.182;27.506;2023-02-18T02:58:28;99809.41;;;5.09;100.00
47738;BME280;33502;47.182;27.506;2023-02-18T03:06:45;99814.50;;;5.14;100.00
47738;BME280;33502;47.182;27.506;2023-02-18T03:09:23;99816.28;;;5.13;100.00
47738;BME280;33502;47.182;27.506;2023-02-18T03:14:43;99817.91;;;5.17;100.00
47738;BME280;33502;47.182;27.506;2023-02-18T03:17:24;99824.94;;;5.17;100.00
47738;BME280;33502;47.182;27.506;2023-02-18T03:20:24;99828.41;;;5.17;100.00
47738;BME280;33502;47.182;27.506;2023-02-18T03:22:53;99823.19;;;5.16;100.00
47738;BME280;33502;47.182;27.506;2023-02-18T03:25:20;99817.06;;;5.17;100.00
47738;BME280;33502;47.182;27.506;2023-02-18T03:27:52;99805.63;;;5.18;100.00
47738;BME280;33502;47.182;27.506;2023-02-18T03:30:23;99814.38;;;5.18;100.00
47738;BME280;33502;47.182;27.506;2023-02-18T03:32:54;99817.06;;;5.17;100.00
47738;BME280;33502;47.182;27.506;2023-02-18T03:35:22;99814.47;;;5.15;100.00
47738;BME280;33502;47.182;27.506;2023-02-18T03:37:58;99820.69;;;5.13;100.00
47738;BME280;33502;47.182;27.506;2023-02-18T03:40:29;99818.16;;;5.08;100.00
47738;BME280;33502;47.182;27.506;2023-02-18T03:42:56;99809.50;;;5.04;100.00
47738;BME280;33502;47.182;27.506;2023-02-18T03:45:24;99811.31;;;5.02;100.00
47738;BME280;33502;47.182;27.506;2023-02-18T03:47:50;99806.03;;;5.04;100.00
47738;BME280;33502;47.182;27.506;2023-02-18T03:50:15;99806.19;;;4.99;100.00
47738;BME280;33502;47.182;27.506;2023-02-18T03:52:41;99801.81;;;4.98;100.00
47738;BME280;33502;47.182;27.506;2023-02-18T03:55:07;99801.84;;;4.97;100.00
47738;BME280;33502;47.182;27.506;2023-02-18T03:57:34;99810.66;;;4.96;100.00
47738;BME280;33502;47.182;27.506;2023-02-18T03:59:59;99815.97;;;4.93;100.00
47738;BME280;33502;47.182;27.506;2023-02-18T04:02:25;99805.53;;;4.91;100.00
47738;BME280;33502;47.182;27.506;2023-02-18T04:04:51;99809.03;;;4.92;100.00
47738;BME280;33502;47.182;27.506;2023-02-18T04:07:17;99802.84;;;4.93;100.00
47738;BME280;33502;47.182;27.506;2023-02-18T04:09:43;99802.00;;;4.92;100.00
47738;BME280;33502;47.182;27.506;2023-02-18T04:12:09;99801.16;;;4.92;100.00
47738;BME280;33502;47.182;27.506;2023-02-18T04:14:34;99806.41;;;4.92;100.00
47738;BME280;33502;47.182;27.506;2023-02-18T04:17:00;99808.97;;;4.93;100.00
47738;BME280;33502;47.182;27.506;2023-02-18T04:19:26;99787.03;;;4.96;100.00
47738;BME280;33502;47.182;27.506;2023-02-18T04:21:52;99775.69;;;4.95;100.00
47738;BME280;33502;47.182;27.506;2023-02-18T04:24:18;99775.72;;;4.94;100.00
47738;BME280;33502;47.182;27.506;2023-02-18T04:26:43;99776.63;;;4.93;100.00
47738;BME280;33502;47.182;27.506;2023-02-18T04:29:09;99765.22;;;4.94;100.00
47738;BME280;33502;47.182;27.506;2023-02-18T04:31:35;99765.28;;;4.92;100.00
47738;BME280;33502;47.182;27.506;2023-02-18T04:34:00;99762.78;;;4.87;100.00
47738;BME280;33502;47.182;27.506;2023-02-18T04:36:26;99763.69;;;4.86;100.00
47738;BME280;33502;47.182;27.506;2023-02-18T04:38:52;99758.47;;;4.85;100.00
47738;BME280;33502;47.182;27.506;2023-02-18T04:41:18;99752.34;;;4.86;100.00
47738;BME280;33502;47.182;27.506;2023-02-18T04:43:44;99742.72;;;4.85;100.00
47738;BME280;33502;47.182;27.506;2023-02-18T04:46:09;99740.91;;;4.87;100.00
47738;BME280;33502;47.182;27.506;2023-02-18T04:48:35;99753.16;;;4.88;100.00
47738;BME280;33502;47.182;27.506;2023-02-18T04:51:01;99751.41;;;4.87;100.00
47738;BME280;33502;47.182;27.506;2023-02-18T04:53:27;99755.81;;;4.86;100.00
47738;BME280;33502;47.182;27.506;2023-02-18T04:55:53;99758.34;;;4.89;100.00
47738;BME280;33502;47.182;27.506;2023-02-18T04:58:20;99752.13;;;4.94;100.00
47738;BME280;33502;47.182;27.506;2023-02-18T05:00:46;99743.16;;;5.01;100.00
47738;BME280;33502;47.182;27.506;2023-02-18T05:03:12;99739.50;;;5.06;100.00
47738;BME280;33502;47.182;27.506;2023-02-18T05:05:38;99723.59;;;5.11;100.00
47738;BME280;33502;47.182;27.506;2023-02-18T05:08:07;99732.22;;;5.16;100.00
47738;BME280;33502;47.182;27.506;2023-02-18T05:10:33;99743.53;;;5.18;100.00
47738;BME280;33502;47.182;27.506;2023-02-18T05:12:59;99740.91;;;5.18;100.00
47738;BME280;33502;47.182;27.506;2023-02-18T05:15:25;99751.41;;;5.18;100.00
47738;BME280;33502;47.182;27.506;2023-02-18T05:17:51;99747.97;;;5.16;100.00
47738;BME280;33502;47.182;27.506;2023-02-18T05:20:17;99737.50;;;5.15;100.00
47738;BME280;33502;47.182;27.506;2023-02-18T05:22:43;99739.34;;;5.11;100.00
47738;BME280;33502;47.182;27.506;2023-02-18T05:25:08;99738.53;;;5.09;100.00
47738;BME280;33502;47.182;27.506;2023-02-18T05:27:34;99741.13;;;5.10;100.00
47738;BME280;33502;47.182;27.506;2023-02-18T05:30:00;99735.91;;;5.09;100.00
47738;BME280;33502;47.182;27.506;2023-02-18T05:32:25;99727.81;;;5.17;100.00
47738;BME280;33502;47.182;27.506;2023-02-18T05:34:51;99724.88;;;5.27;100.00
47738;BME280;33502;47.182;27.506;2023-02-18T05:37:17;99729.94;;;5.34;100.00
47738;BME280;33502;47.182;27.506;2023-02-18T05:39:44;99730.53;;;5.42;100.00
47738;BME280;33502;47.182;27.506;2023-02-18T05:42:10;99741.72;;;5.48;100.00
47738;BME280;33502;47.182;27.506;2023-02-18T05:44:36;99744.28;;;5.50;100.00
47738;BME280;33502;47.182;27.506;2023-02-18T05:47:07;99756.47;;;5.53;100.00
47738;BME280;33502;47.182;27.506;2023-02-18T05:49:34;99753.75;;;5.56;100.00
47738;BME280;33502;47.182;27.506;2023-02-18T05:52:00;99771.13;;;5.60;100.00
47738;BME280;33502;47.182;27.506;2023-02-18T05:54:27;99761.25;;;5.68;100.00
47738;BME280;33502;47.182;27.506;2023-02-18T05:56:53;99753.72;;;5.84;100.00
47738;BME280;33502;47.182;27.506;2023-02-18T05:59:19;99755.00;;;6.00;100.00
47738;BME280;33502;47.182;27.506;2023-02-18T06:01:45;99750.03;;;6.18;100.00
47738;BME280;33502;47.182;27.506;2023-02-18T06:04:12;99737.25;;;6.32;100.00
47738;BME280;33502;47.182;27.506;2023-02-18T06:06:38;99737.06;;;6.38;100.00
47738;BME280;33502;47.182;27.506;2023-02-18T06:09:04;99740.63;;;6.36;100.00
47738;BME280;33502;47.182;27.506;2023-02-18T06:11:31;99734.63;;;6.32;100.00
47738;BME280;33502;47.182;27.506;2023-02-18T06:13:57;99737.09;;;6.37;100.00
47738;BME280;33502;47.182;27.506;2023-02-18T06:16:23;99736.78;;;6.46;100.00
47738;BME280;33502;47.182;27.506;2023-02-18T06:18:49;99740.84;;;6.55;100.00
47738;BME280;33502;47.182;27.506;2023-02-18T06:21:15;99741.44;;;6.63;100.00
47738;BME280;33502;47.182;27.506;2023-02-18T06:23:41;99746.53;;;6.68;100.00
47738;BME280;33502;47.182;27.506;2023-02-18T06:26:07;99732.13;;;6.78;100.00
47738;BME280;33502;47.182;27.506;2023-02-18T06:28:32;99734.53;;;6.84;100.00
47738;BME280;33502;47.182;27.506;2023-02-18T06:30:58;99720.38;;;6.88;100.00
47738;BME280;33502;47.182;27.506;2023-02-18T06:33:24;99722.00;;;6.91;100.00
47738;BME280;33502;47.182;27.506;2023-02-18T06:35:55;99741.19;;;6.94;100.00
47738;BME280;33502;47.182;27.506;2023-02-18T06:38:21;99736.53;;;7.01;100.00
47738;BME280;33502;47.182;27.506;2023-02-18T06:40:47;99734.94;;;7.20;100.00
47738;BME280;33502;47.182;27.506;2023-02-18T06:43:12;99739.38;;;7.42;100.00
47738;BME280;33502;47.182;27.506;2023-02-18T06:45:39;99729.53;;;7.47;100.00
47738;BME280;33502;47.182;27.506;2023-02-18T06:48:05;99736.44;;;7.50;100.00
47738;BME280;33502;47.182;27.506;2023-02-18T06:50:31;99738.94;;;7.53;100.00
47738;BME280;33502;47.182;27.506;2023-02-18T06:52:56;99735.03;;;7.63;100.00
47738;BME280;33502;47.182;27.506;2023-02-18T06:55:24;99734.34;;;7.80;100.00
47738;BME280;33502;47.182;27.506;2023-02-18T06:57:50;99728.63;;;7.91;100.00
47738;BME280;33502;47.182;27.506;2023-02-18T07:00:16;99728.50;;;7.94;100.00
47738;BME280;33502;47.182;27.506;2023-02-18T07:02:42;99727.50;;;7.96;100.00
47738;BME280;33502;47.182;27.506;2023-02-18T07:05:08;99726.66;;;7.96;100.00
47738;BME280;33502;47.182;27.506;2023-02-18T07:07:34;99723.97;;;7.97;100.00
47738;BME280;33502;47.182;27.506;2023-02-18T07:10:00;99722.38;;;7.93;100.00
47738;BME280;33502;47.182;27.506;2023-02-18T07:12:26;99723.34;;;7.91;100.00
47738;BME280;33502;47.182;27.506;2023-02-18T07:14:52;99728.72;;;7.89;100.00
47738;BME280;33502;47.182;27.506;2023-02-18T07:17:18;99727.19;;;7.83;100.00
47738;BME280;33502;47.182;27.506;2023-02-18T07:19:44;99716.75;;;7.80;100.00
47738;BME280;33502;47.182;27.506;2023-02-18T07:22:10;99716.69;;;7.82;100.00
47738;BME280;33502;47.182;27.506;2023-02-18T07:24:35;99719.28;;;7.83;100.00
47738;BME280;33502;47.182;27.506;2023-02-18T07:27:01;99720.97;;;7.84;100.00
47738;BME280;33502;47.182;27.506;2023-02-18T07:29:27;99718.28;;;7.86;100.00
47738;BME280;33502;47.182;27.506;2023-02-18T07:31:53;99722.50;;;7.90;100.00
47738;BME280;33502;47.182;27.506;2023-02-18T07:34:19;99719.66;;;7.95;100.00
47738;BME280;33502;47.182;27.506;2023-02-18T07:36:45;99726.41;;;8.02;100.00
47738;BME280;33502;47.182;27.506;2023-02-18T07:39:10;99730.31;;;8.14;100.00
47738;BME280;33502;47.182;27.506;2023-02-18T07:41:36;99722.56;;;8.31;100.00
47738;BME280;33502;47.182;27.506;2023-02-18T07:44:06;99710.81;;;8.59;100.00
47738;BME280;33502;47.182;27.506;2023-02-18T07:46:32;99715.44;;;8.93;100.00
47738;BME280;33502;47.182;27.506;2023-02-18T07:48:58;99716.88;;;9.38;100.00
47738;BME280;33502;47.182;27.506;2023-02-18T07:51:23;99715.47;;;9.85;100.00
47738;BME280;33502;47.182;27.506;2023-02-18T07:53:49;99716.44;;;10.02;100.00
47738;BME280;33502;47.182;27.506;2023-02-18T07:56:15;99710.84;;;10.08;100.00
47738;BME280;33502;47.182;27.506;2023-02-18T07:58:42;99714.97;;;10.13;100.00
47738;BME280;33502;47.182;27.506;2023-02-18T08:01:11;99714.25;;;10.10;100.00
47738;BME280;33502;47.182;27.506;2023-02-18T08:03:39;99704.25;;;10.16;100.00
47738;BME280;33502;47.182;27.506;2023-02-18T08:06:06;99702.75;;;10.28;100.00
47738;BME280;33502;47.182;27.506;2023-02-18T08:08:33;99694.59;;;10.33;100.00
47738;BME280;33502;47.182;27.506;2023-02-18T08:11:00;99703.59;;;10.46;100.00
47738;BME280;33502;47.182;27.506;2023-02-18T08:13:33;99702.41;;;10.69;100.00
47738;BME280;33502;47.182;27.506;2023-02-18T08:15:59;99706.44;;;10.92;100.00
47738;BME280;33502;47.182;27.506;2023-02-18T08:18:25;99699.22;;;11.12;100.00
47738;BME280;33502;47.182;27.506;2023-02-18T08:20:51;99689.75;;;11.24;100.00
47738;BME280;33502;47.182;27.506;2023-02-18T08:23:19;99696.75;;;11.25;100.00
47738;BME280;33502;47.182;27.506;2023-02-18T08:25:47;99697.25;;;11.15;100.00
47738;BME280;33502;47.182;27.506;2023-02-18T08:28:13;99691.78;;;11.03;100.00
47738;BME280;33502;47.182;27.506;2023-02-18T08:30:43;99689.38;;;10.98;100.00
47738;BME280;33502;47.182;27.506;2023-02-18T08:33:09;99684.06;;;10.98;100.00
47738;BME280;33502;47.182;27.506;2023-02-18T08:35:35;99678.97;;;10.95;100.00
47738;BME280;33502;47.182;27.506;2023-02-18T08:38:01;99689.72;;;10.92;100.00
47738;BME280;33502;47.182;27.506;2023-02-18T08:40:26;99675.44;;;10.78;100.00
47738;BME280;33502;47.182;27.506;2023-02-18T08:42:52;99679.59;;;10.67;100.00
47738;BME280;33502;47.182;27.506;2023-02-18T08:45:18;99689.56;;;10.62;100.00
47738;BME280;33502;47.182;27.506;2023-02-18T08:47:44;99692.13;;;10.63;100.00
47738;BME280;33502;47.182;27.506;2023-02-18T08:50:10;99691.72;;;10.71;100.00
47738;BME280;33502;47.182;27.506;2023-02-18T08:52:36;99697.50;;;10.95;100.00
47738;BME280;33502;47.182;27.506;2023-02-18T08:55:03;99697.84;;;11.21;100.00
47738;BME280;33502;47.182;27.506;2023-02-18T08:57:30;99700.94;;;11.29;100.00
47738;BME280;33502;47.182;27.506;2023-02-18T08:59:56;99693.59;;;11.34;100.00
47738;BME280;33502;47.182;27.506;2023-02-18T09:02:21;99690.00;;;11.51;100.00
47738;BME280;33502;47.182;27.506;2023-02-18T09:04:47;99676.13;;;12.08;100.00
47738;BME280;33502;47.182;27.506;2023-02-18T09:07:13;99684.47;;;13.45;100.00
47738;BME280;33502;47.182;27.506;2023-02-18T09:09:39;99684.84;;;14.72;99.44
47738;BME280;33502;47.182;27.506;2023-02-18T09:12:07;99679.66;;;15.20;95.17
47738;BME280;33502;47.182;27.506;2023-02-18T09:14:33;99681.16;;;15.49;92.93
47738;BME280;33502;47.182;27.506;2023-02-18T09:16:59;99681.91;;;15.14;90.82
47738;BME280;33502;47.182;27.506;2023-02-18T09:19:25;99679.53;;;14.72;90.77
47738;BME280;33502;47.182;27.506;2023-02-18T09:21:51;99672.38;;;14.47;92.30
47738;BME280;33502;47.182;27.506;2023-02-18T09:24:22;99686.22;;;14.52;93.16
47738;BME280;33502;47.182;27.506;2023-02-18T09:26:49;99677.25;;;14.92;93.28
47738;BME280;33502;47.182;27.506;2023-02-18T09:29:15;99673.03;;;15.26;90.72
47738;BME280;33502;47.182;27.506;2023-02-18T09:31:42;99677.13;;;15.43;87.18
47738;BME280;33502;47.182;27.506;2023-02-18T09:34:08;99674.88;;;15.98;84.62
47738;BME280;33502;47.182;27.506;2023-02-18T09:36:34;99677.91;;;16.40;80.46
47738;BME280;33502;47.182;27.506;2023-02-18T09:38:59;99683.16;;;16.53;77.99
47738;BME280;33502;47.182;27.506;2023-02-18T09:41:33;99658.38;;;16.04;77.32
47738;BME280;33502;47.182;27.506;2023-02-18T09:46:59;99673.38;;;15.45;79.31
47738;BME280;33502;47.182;27.506;2023-02-18T09:49:31;99671.25;;;15.14;79.79
47738;BME280;33502;47.182;27.506;2023-02-18T09:52:06;99663.25;;;15.75;78.91
47738;BME280;33502;47.182;27.506;2023-02-18T09:54:35;99661.44;;;16.22;77.31
47738;BME280;33502;47.182;27.506;2023-02-18T09:57:02;99658.81;;;16.33;74.83
47738;BME280;33502;47.182;27.506;2023-02-18T09:59:29;99662.63;;;16.76;72.76
47738;BME280;33502;47.182;27.506;2023-02-18T10:01:56;99675.00;;;16.66;71.66
47738;BME280;33502;47.182;27.506;2023-02-18T10:04:27;99668.09;;;16.63;72.13
47738;BME280;33502;47.182;27.506;2023-02-18T10:06:55;99656.44;;;16.53;71.52
47738;BME280;33502;47.182;27.506;2023-02-18T10:09:26;99662.34;;;16.34;71.95
47738;BME280;33502;47.182;27.506;2023-02-18T10:12:00;99666.00;;;16.44;72.15
47738;BME280;33502;47.182;27.506;2023-02-18T10:14:27;99662.22;;;16.47;70.48
47738;BME280;33502;47.182;27.506;2023-02-18T10:16:54;99678.47;;;16.21;71.74
47738;BME280;33502;47.182;27.506;2023-02-18T10:19:30;99672.56;;;16.40;70.80
47738;BME280;33502;47.182;27.506;2023-02-18T10:22:00;99668.75;;;16.89;70.70
47738;BME280;33502;47.182;27.506;2023-02-18T10:24:31;99675.25;;;17.30;67.45
47738;BME280;33502;47.182;27.506;2023-02-18T10:26:59;99669.75;;;17.54;65.44
47738;BME280;33502;47.182;27.506;2023-02-18T10:29:26;99671.59;;;17.42;65.16
47738;BME280;33502;47.182;27.506;2023-02-18T10:32:06;99659.16;;;17.53;63.61
47738;BME280;33502;47.182;27.506;2023-02-18T10:39:59;99669.00;;;18.38;60.69
47738;BME280;33502;47.182;27.506;2023-02-18T10:48:00;99638.97;;;18.65;56.54
47738;BME280;33502;47.182;27.506;2023-02-18T10:50:37;99666.25;;;18.07;58.25
47738;BME280;33502;47.182;27.506;2023-02-18T10:55:43;99654.16;;;18.13;61.84
47738;BME280;33502;47.182;27.506;2023-02-18T10:58:32;99650.06;;;18.09;62.83
47738;BME280;33502;47.182;27.506;2023-02-18T11:01:10;99646.84;;;18.15;60.76
47738;BME280;33502;47.182;27.506;2023-02-18T11:06:15;99636.72;;;18.70;55.81
47738;BME280;33502;47.182;27.506;2023-02-18T11:08:43;99651.09;;;19.50;50.02
47738;BME280;33502;47.182;27.506;2023-02-18T11:11:27;99634.00;;;19.71;46.94
47738;BME280;33502;47.182;27.506;2023-02-18T11:13:57;99625.91;;;19.22;45.84
47738;BME280;33502;47.182;27.506;2023-02-18T11:16:38;99651.34;;;17.93;48.15
47738;BME280;33502;47.182;27.506;2023-02-18T11:19:04;99653.50;;;16.67;50.19
47738;BME280;33502;47.182;27.506;2023-02-18T11:21:34;99635.16;;;15.93;53.06
47738;BME280;33502;47.182;27.506;2023-02-18T11:24:11;99642.84;;;15.74;55.31
47738;BME280;33502;47.182;27.506;2023-02-18T11:26:40;99638.34;;;15.98;55.53
47738;BME280;33502;47.182;27.506;2023-02-18T11:29:19;99628.88;;;16.86;54.38
47738;BME280;33502;47.182;27.506;2023-02-18T11:31:48;99622.34;;;17.34;52.68
47738;BME280;33502;47.182;27.506;2023-02-18T11:34:33;99620.09;;;18.25;51.44
47738;BME280;33502;47.182;27.506;2023-02-18T11:37:11;99615.72;;;18.75;48.46
47738;BME280;33502;47.182;27.506;2023-02-18T11:39:42;99610.81;;;19.31;47.58
47738;BME280;33502;47.182;27.506;2023-02-18T11:42:12;99617.19;;;19.59;44.57
47738;BME280;33502;47.182;27.506;2023-02-18T11:44:47;99598.66;;;19.66;42.48
47738;BME280;33502;47.182;27.506;2023-02-18T11:49:41;99614.38;;;19.70;41.80
47738;BME280;33502;47.182;27.506;2023-02-18T11:52:32;99612.09;;;19.36;43.93
47738;BME280;33502;47.182;27.506;2023-02-18T11:57:27;99602.63;;;19.91;42.87
47738;BME280;33502;47.182;27.506;2023-02-18T11:59:53;99606.16;;;19.52;41.35
47738;BME280;33502;47.182;27.506;2023-02-18T12:02:30;99603.19;;;19.36;42.36
47738;BME280;33502;47.182;27.506;2023-02-18T12:07:57;99597.41;;;19.60;37.77
47738;BME280;33502;47.182;27.506;2023-02-18T12:10:34;99588.75;;;19.37;37.80
47738;BME280;33502;47.182;27.506;2023-02-18T12:13:03;99580.88;;;19.55;36.68
47738;BME280;33502;47.182;27.506;2023-02-18T12:15:45;99583.56;;;19.65;37.22
47738;BME280;33502;47.182;27.506;2023-02-18T12:18:23;99579.03;;;19.94;36.24
47738;BME280;33502;47.182;27.506;2023-02-18T12:23:35;99590.72;;;20.23;34.75
47738;BME280;33502;47.182;27.506;2023-02-18T12:26:28;99579.59;;;19.98;36.46
47738;BME280;33502;47.182;27.506;2023-02-18T12:29:40;99576.78;;;19.70;35.72
47738;BME280;33502;47.182;27.506;2023-02-18T12:32:35;99578.75;;;19.88;36.04
47738;BME280;33502;47.182;27.506;2023-02-18T12:57:54;99582.66;;;20.23;33.80
47738;BME280;33502;47.182;27.506;2023-02-18T13:05:56;99589.78;;;19.85;29.73
47738;BME280;33502;47.182;27.506;2023-02-18T13:14:06;99585.00;;;19.79;30.57
47738;BME280;33502;47.182;27.506;2023-02-18T13:16:35;99591.06;;;19.61;29.81
47738;BME280;33502;47.182;27.506;2023-02-18T13:22:03;99591.19;;;19.40;30.48
47738;BME280;33502;47.182;27.506;2023-02-18T13:24:34;99594.44;;;18.84;31.42
47738;BME280;33502;47.182;27.506;2023-02-18T13:41:18;99595.53;;;17.77;32.53
47738;BME280;33502;47.182;27.506;2023-02-18T13:43:45;99595.44;;;18.00;32.09
47738;BME280;33502;47.182;27.506;2023-02-18T13:46:20;99602.66;;;18.30;32.38
47738;BME280;33502;47.182;27.506;2023-02-18T14:04:52;99587.47;;;15.64;36.38
47738;BME280;33502;47.182;27.506;2023-02-18T14:33:39;99563.03;;;13.31;36.25
47738;BME280;33502;47.182;27.506;2023-02-18T14:39:01;99566.84;;;12.86;36.96
47738;BME280;33502;47.182;27.506;2023-02-18T14:52:11;99574.63;;;12.19;37.50
47738;BME280;33502;47.182;27.506;2023-02-18T14:54:39;99567.13;;;12.11;37.92
47738;BME280;33502;47.182;27.506;2023-02-18T14:57:15;99560.69;;;12.01;37.91
47738;BME280;33502;47.182;27.506;2023-02-18T14:59:42;99565.78;;;11.89;37.82
47738;BME280;33502;47.182;27.506;2023-02-18T15:02:21;99563.16;;;11.73;38.30
47738;BME280;33502;47.182;27.506;2023-02-18T15:04:48;99556.00;;;11.60;38.32
47738;BME280;33502;47.182;27.506;2023-02-18T15:07:20;99573.50;;;11.48;38.42
47738;BME280;33502;47.182;27.506;2023-02-18T15:09:52;99580.97;;;11.41;39.13
47738;BME280;33502;47.182;27.506;2023-02-18T15:12:21;99582.94;;;11.38;39.52
47738;BME280;33502;47.182;27.506;2023-02-18T15:14:50;99577.72;;;11.36;39.12
47738;BME280;33502;47.182;27.506;2023-02-18T15:17:20;99578.78;;;11.33;39.07
47738;BME280;33502;47.182;27.506;2023-02-18T15:19:50;99579.91;;;11.29;39.42
47738;BME280;33502;47.182;27.506;2023-02-18T15:22:19;99588.00;;;11.26;39.77
47738;BME280;33502;47.182;27.506;2023-02-18T15:24:46;99589.97;;;11.23;39.82
47738;BME280;33502;47.182;27.506;2023-02-18T15:27:40;99590.34;;;11.16;40.18
47738;BME280;33502;47.182;27.506;2023-02-18T15:32:37;99602.66;;;11.02;40.36
47738;BME280;33502;47.182;27.506;2023-02-18T15:35:16;99593.50;;;10.91;40.84
47738;BME280;33502;47.182;27.506;2023-02-18T15:37:46;99592.28;;;10.81;40.84
47738;BME280;33502;47.182;27.506;2023-02-18T15:40:17;99604.41;;;10.69;41.58
47738;BME280;33502;47.182;27.506;2023-02-18T15:42:46;99603.47;;;10.54;41.92
47738;BME280;33502;47.182;27.506;2023-02-18T15:45:43;99604.97;;;10.43;42.40
47738;BME280;33502;47.182;27.506;2023-02-18T15:48:33;99607.13;;;10.36;42.37
47738;BME280;33502;47.182;27.506;2023-02-18T15:51:11;99617.63;;;10.37;43.22
47738;BME280;33502;47.182;27.506;2023-02-18T15:53:39;99626.63;;;10.33;42.54
47738;BME280;33502;47.182;27.506;2023-02-18T15:56:09;99623.66;;;10.22;43.61
47738;BME280;33502;47.182;27.506;2023-02-18T15:58:36;99632.31;;;10.08;44.52
47738;BME280;33502;47.182;27.506;2023-02-18T16:01:06;99632.25;;;10.10;43.94